Time;durP1;ratioP1;P1;durP2;ratioP2;P2;SDS_P1;SDS_P2;PMS_P1;PMS_P2;Temp;Humidity;BMP_temperature;BMP_pressure;BME280_temperature;BME280_humidity;BME280_pressure;Samples;Min_cycle;Max_cycle;Signal;HPM_P1;HPM_P2
2023/03/11 00:02:05;;;;;;;5.63;1.60;;;25.90;99.90;;;;;;5103402;28;20199;-77
2023/03/11 00:04:36;;;;;;;5.50;1.35;;;25.90;99.90;;;;;;5105948;28;20187;-75
2023/03/11 00:07:12;;;;;;;4.80;1.73;;;26.00;99.90;;;;;;5107765;28;20209;-76
2023/03/11 00:09:46;;;;;;;5.20;1.80;;;26.20;99.90;;;;;;5090872;28;20604;-79
2023/03/11 00:12:17;;;;;;;8.15;1.80;;;26.20;99.90;;;;;;5099044;28;20219;-76
2023/03/11 00:14:48;;;;;;;6.57;2.00;;;26.30;99.90;;;;;;5109358;28;20226;-77
2023/03/11 00:17:21;;;;;;;6.00;1.90;;;26.40;99.90;;;;;;5095229;28;20602;-77
2023/03/11 00:19:52;;;;;;;8.65;2.00;;;26.50;99.90;;;;;;5108269;28;20584;-76
2023/03/11 00:22:25;;;;;;;3.78;1.40;;;26.60;99.90;;;;;;5093633;28;20596;-78
2023/03/11 00:24:56;;;;;;;4.47;1.38;;;26.70;99.90;;;;;;5093979;28;20195;-78
2023/03/11 00:27:27;;;;;;;6.75;1.60;;;26.70;99.90;;;;;;5093165;28;20305;-78
2023/03/11 00:29:58;;;;;;;6.95;1.83;;;26.80;99.90;;;;;;5097693;28;20196;-78
2023/03/11 00:32:31;;;;;;;4.53;1.63;;;27.00;99.90;;;;;;5093892;28;20227;-78
2023/03/11 00:35:02;;;;;;;7.25;2.10;;;27.00;99.90;;;;;;5108133;28;20207;-79
2023/03/11 00:37:33;;;;;;;5.10;1.95;;;27.10;99.90;;;;;;5100673;28;20671;-79
2023/03/11 00:40:07;;;;;;;4.65;1.50;;;27.20;99.90;;;;;;5095278;28;23110;-77
2023/03/11 00:42:38;;;;;;;4.75;1.50;;;27.20;99.90;;;;;;5103777;28;20195;-78
2023/03/11 00:45:10;;;;;;;8.13;1.92;;;27.40;99.90;;;;;;5096974;28;20583;-78
2023/03/11 00:47:43;;;;;;;8.38;1.70;;;27.50;99.90;;;;;;5103259;28;20199;-78
2023/03/11 00:50:18;;;;;;;5.20;1.60;;;27.50;99.90;;;;;;5094519;28;20534;-79
2023/03/11 00:52:50;;;;;;;5.22;1.65;;;27.60;99.90;;;;;;5100390;28;20284;-78
2023/03/11 00:55:25;;;;;;;3.70;1.30;;;27.60;99.90;;;;;;5092381;28;20202;-77
2023/03/11 00:57:58;;;;;;;7.13;1.92;;;27.70;99.90;;;;;;5101436;28;20198;-78
2023/03/11 01:00:30;;;;;;;6.22;1.75;;;27.80;99.90;;;;;;5093431;28;20199;-78
2023/03/11 01:03:04;;;;;;;5.93;1.70;;;27.90;99.90;;;;;;5099210;28;20203;-78
2023/03/11 01:05:36;;;;;;;4.72;1.60;;;28.10;99.90;;;;;;5092491;28;20669;-78
2023/03/11 01:08:07;;;;;;;7.65;1.52;;;28.10;99.90;;;;;;5102988;28;20468;-77
2023/03/11 01:10:38;;;;;;;8.45;1.70;;;28.20;99.90;;;;;;5102149;28;20195;-78
2023/03/11 01:13:10;;;;;;;6.53;1.60;;;28.20;99.90;;;;;;5092859;28;20237;-78
2023/03/11 01:15:41;;;;;;;5.53;1.50;;;28.40;99.90;;;;;;5093045;28;20187;-78
2023/03/11 01:18:15;;;;;;;6.63;2.10;;;28.40;99.90;;;;;;5102269;28;20589;-78
2023/03/11 01:20:48;;;;;;;7.07;1.80;;;28.50;99.90;;;;;;5101490;28;20241;-78
2023/03/11 01:23:21;;;;;;;6.95;1.92;;;28.60;99.90;;;;;;5110339;28;20199;-78
2023/03/11 01:25:52;;;;;;;9.65;1.88;;;28.60;99.90;;;;;;5106526;28;20195;-78
2023/03/11 01:28:23;;;;;;;7.70;1.85;;;28.70;99.90;;;;;;5095176;28;20227;-78
2023/03/11 01:30:54;;;;;;;7.28;1.70;;;28.80;99.90;;;;;;5092012;28;20562;-78
2023/03/11 01:33:27;;;;;;;6.07;2.08;;;28.80;99.90;;;;;;5098014;28;20580;-79
2023/03/11 01:35:59;;;;;;;11.30;2.60;;;28.90;99.90;;;;;;5117496;28;20206;-78
2023/03/11 01:38:30;;;;;;;8.57;2.05;;;29.00;99.90;;;;;;5108390;28;20528;-78
2023/03/11 01:41:01;;;;;;;5.07;1.83;;;29.00;99.90;;;;;;5097703;28;20194;-78
2023/03/11 01:43:51;;;;;;;6.10;1.95;;;29.10;99.90;;;;;;5100827;28;20188;-78
2023/03/11 01:46:24;;;;;;;6.45;2.10;;;29.10;99.90;;;;;;5105448;28;20197;-79
2023/03/11 01:48:58;;;;;;;8.02;2.28;;;29.10;99.90;;;;;;5107362;28;20199;-78
2023/03/11 01:51:33;;;;;;;10.20;1.92;;;29.20;99.90;;;;;;5096927;28;20196;-78
2023/03/11 01:54:11;;;;;;;9.82;2.83;;;29.20;99.90;;;;;;5099796;28;20233;-77
2023/03/11 01:56:44;;;;;;;10.65;2.50;;;29.10;99.90;;;;;;5095658;28;20245;-78
2023/03/11 01:59:19;;;;;;;7.63;2.42;;;29.10;99.90;;;;;;5108875;28;20569;-79
2023/03/11 02:01:56;;;;;;;8.07;2.80;;;29.20;99.90;;;;;;5099935;28;20277;-78
2023/03/11 02:04:30;;;;;;;7.72;2.42;;;29.20;99.90;;;;;;5107661;27;20198;-77
2023/03/11 02:07:02;;;;;;;8.35;2.10;;;29.30;99.90;;;;;;5111529;28;20194;-78
2023/03/11 02:09:33;;;;;;;6.75;2.03;;;29.40;99.90;;;;;;5100472;28;20195;-79
2023/03/11 02:12:04;;;;;;;5.40;2.10;;;29.40;99.90;;;;;;5091906;28;20196;-79
2023/03/11 02:14:36;;;;;;;7.70;2.00;;;29.40;99.90;;;;;;5102204;28;20715;-79
2023/03/11 02:17:08;;;;;;;6.00;2.03;;;29.40;99.90;;;;;;5100056;28;20226;-79
2023/03/11 02:19:51;;;;;;;6.68;1.70;;;29.40;99.90;;;;;;5091603;28;20240;-79
2023/03/11 02:22:23;;;;;;;4.43;1.48;;;29.40;99.90;;;;;;5091449;28;20202;-79
2023/03/11 02:25:01;;;;;;;8.35;1.90;;;29.40;99.90;;;;;;5097801;28;20199;-78
2023/03/11 02:27:36;;;;;;;7.05;1.80;;;29.30;99.90;;;;;;5097267;28;20218;-78
2023/03/11 02:30:07;;;;;;;6.15;1.67;;;29.30;99.90;;;;;;5109289;28;20201;-78
2023/03/11 02:32:39;;;;;;;5.50;1.77;;;29.30;99.90;;;;;;5094399;28;20195;-77
2023/03/11 02:35:11;;;;;;;7.88;1.92;;;29.30;99.90;;;;;;5106208;28;20203;-78
2023/03/11 02:37:47;;;;;;;4.60;1.90;;;29.30;99.90;;;;;;5095832;28;20569;-78
2023/03/11 02:40:40;;;;;;;5.13;1.40;;;29.30;99.90;;;;;;5093115;28;20676;-78
2023/03/11 02:43:16;;;;;;;6.38;1.73;;;29.30;99.90;;;;;;5093924;28;20583;-78
2023/03/11 02:45:50;;;;;;;4.32;1.52;;;29.20;99.90;;;;;;5103711;28;20187;-79
2023/03/11 02:48:23;;;;;;;5.63;1.90;;;29.20;99.90;;;;;;5091129;28;20191;-79
2023/03/11 02:50:55;;;;;;;3.45;1.60;;;29.20;99.90;;;;;;5095656;28;20191;-78
2023/03/11 02:53:27;;;;;;;6.65;1.83;;;29.20;99.90;;;;;;5091426;28;20215;-78
2023/03/11 02:55:58;;;;;;;6.03;2.00;;;29.20;99.90;;;;;;5105144;28;20662;-77
2023/03/11 02:58:31;;;;;;;3.92;1.55;;;29.30;99.90;;;;;;5099132;28;20545;-76
2023/03/11 03:01:02;;;;;;;7.90;1.77;;;29.40;99.90;;;;;;5090688;28;20203;-78
2023/03/11 03:03:33;;;;;;;8.65;1.60;;;29.50;99.90;;;;;;5100077;28;20689;-78
2023/03/11 03:06:04;;;;;;;5.95;1.80;;;29.50;99.90;;;;;;5107724;28;20205;-78
2023/03/11 03:08:35;;;;;;;4.10;1.83;;;29.60;99.90;;;;;;5102731;28;20199;-79
2023/03/11 03:11:07;;;;;;;4.65;1.60;;;29.70;99.90;;;;;;5094023;28;20646;-79
2023/03/11 03:13:40;;;;;;;6.07;2.00;;;29.70;99.90;;;;;;5089970;28;20207;-78
2023/03/11 03:16:11;;;;;;;5.70;1.77;;;29.80;99.90;;;;;;5090069;28;20195;-78
2023/03/11 03:18:42;;;;;;;4.40;1.80;;;29.90;99.90;;;;;;5097539;28;20195;-80
2023/03/11 03:21:13;;;;;;;4.63;1.90;;;30.00;99.90;;;;;;5098702;28;20214;-79
2023/03/11 03:23:44;;;;;;;4.07;1.50;;;30.00;99.90;;;;;;5090471;28;20550;-78
2023/03/11 03:26:16;;;;;;;4.57;1.70;;;30.10;99.90;;;;;;5109864;28;20657;-78
2023/03/11 03:28:49;;;;;;;5.30;1.77;;;30.10;99.90;;;;;;5110244;28;20218;-80
2023/03/11 03:31:20;;;;;;;5.40;1.70;;;30.20;99.90;;;;;;5102195;28;20642;-80
2023/03/11 03:33:51;;;;;;;3.92;1.48;;;30.30;99.90;;;;;;5097975;28;20219;-79
2023/03/11 03:36:22;;;;;;;6.05;2.00;;;30.40;99.90;;;;;;5113267;28;20246;-79
2023/03/11 03:38:57;;;;;;;5.32;1.83;;;30.50;99.90;;;;;;5106383;28;20197;-80
2023/03/11 03:41:28;;;;;;;7.07;2.10;;;30.50;99.90;;;;;;5095607;28;20233;-79
2023/03/11 03:44:02;;;;;;;5.80;2.00;;;30.60;99.90;;;;;;5090136;28;20446;-80
2023/03/11 03:46:33;;;;;;;5.03;1.88;;;30.50;99.90;;;;;;5110747;28;20199;-78
2023/03/11 03:49:06;;;;;;;6.68;2.13;;;30.60;99.90;;;;;;5099612;28;20532;-78
2023/03/11 03:51:38;;;;;;;7.20;1.90;;;30.50;99.90;;;;;;5090533;28;20199;-79
2023/03/11 03:54:09;;;;;;;6.20;2.05;;;30.40;99.90;;;;;;5103618;28;21167;-79
2023/03/11 03:56:40;;;;;;;6.78;2.30;;;30.40;99.90;;;;;;5094406;28;20198;-79
2023/03/11 03:59:13;;;;;;;6.57;2.05;;;30.30;99.90;;;;;;5105174;28;20230;-79
2023/03/11 04:01:44;;;;;;;5.68;1.95;;;30.10;99.90;;;;;;5114240;28;20202;-79
2023/03/11 04:04:15;;;;;;;7.30;2.10;;;30.00;99.90;;;;;;5104475;28;20209;-79
2023/03/11 04:06:46;;;;;;;7.07;2.28;;;30.00;99.90;;;;;;5115222;28;20201;-79
2023/03/11 04:09:17;;;;;;;8.80;2.30;;;30.00;99.90;;;;;;5114336;28;20206;-79
2023/03/11 04:11:48;;;;;;;7.47;2.42;;;30.00;99.90;;;;;;5110169;28;20198;-79
2023/03/11 04:14:21;;;;;;;8.15;2.50;;;29.90;99.90;;;;;;5096787;28;20223;-79
2023/03/11 04:16:52;;;;;;;7.57;2.22;;;30.00;99.90;;;;;;5114137;28;20218;-77
2023/03/11 04:19:24;;;;;;;7.65;2.10;;;29.90;99.90;;;;;;5113311;28;20653;-77
2023/03/11 04:21:55;;;;;;;4.10;1.88;;;29.90;99.90;;;;;;5116766;28;20568;-78
2023/03/11 04:24:26;;;;;;;7.28;2.20;;;29.80;99.90;;;;;;5114128;28;20649;-78
2023/03/11 04:26:57;;;;;;;5.70;2.13;;;29.70;99.90;;;;;;5107179;28;20760;-79
2023/03/11 04:29:30;;;;;;;8.43;2.28;;;29.60;99.90;;;;;;5109264;28;20634;-78
2023/03/11 04:32:01;;;;;;;9.38;2.40;;;29.50;99.90;;;;;;5107947;28;20202;-79
2023/03/11 04:34:32;;;;;;;3.80;2.00;;;29.50;99.90;;;;;;5103350;28;20628;-78
2023/03/11 04:37:03;;;;;;;5.95;1.90;;;29.20;99.90;;;;;;5113405;28;20195;-78
2023/03/11 04:39:34;;;;;;;4.72;1.90;;;29.30;99.90;;;;;;5109683;28;20213;-78
2023/03/11 04:42:05;;;;;;;4.75;2.13;;;29.30;99.90;;;;;;5108380;28;20195;-78
2023/03/11 04:44:40;;;;;;;6.78;2.15;;;29.40;99.90;;;;;;5101212;28;20191;-78
2023/03/11 04:47:13;;;;;;;4.05;2.03;;;29.40;99.90;;;;;;5094871;28;20198;-78
2023/03/11 04:49:45;;;;;;;7.18;2.30;;;29.40;99.90;;;;;;5107252;28;20207;-78
2023/03/11 04:52:16;;;;;;;5.90;2.13;;;29.50;99.90;;;;;;5096513;28;20672;-76
2023/03/11 04:54:47;;;;;;;4.95;2.10;;;29.50;99.90;;;;;;5096911;28;20218;-78
2023/03/11 04:57:18;;;;;;;8.15;2.17;;;29.50;99.90;;;;;;5113662;28;20641;-77
2023/03/11 04:59:51;;;;;;;7.15;2.40;;;29.50;99.90;;;;;;5097330;28;20552;-78
2023/03/11 05:02:23;;;;;;;6.57;2.30;;;29.60;99.90;;;;;;5114065;28;20229;-79
2023/03/11 05:04:55;;;;;;;5.30;2.10;;;29.60;99.90;;;;;;5101191;28;20195;-78
2023/03/11 05:07:26;;;;;;;6.20;2.35;;;29.70;99.90;;;;;;5095214;28;20573;-78
2023/03/11 05:09:57;;;;;;;8.38;2.17;;;29.70;99.90;;;;;;5111708;28;20225;-77
2023/03/11 05:12:28;;;;;;;7.80;2.35;;;29.60;99.90;;;;;;5109422;28;20199;-78
2023/03/11 05:15:01;;;;;;;7.25;2.22;;;29.70;99.90;;;;;;5106044;28;20561;-78
2023/03/11 05:17:32;;;;;;;8.38;2.30;;;29.80;99.90;;;;;;5093011;28;20308;-77
2023/03/11 05:20:05;;;;;;;5.88;2.03;;;29.90;99.90;;;;;;5094094;28;20192;-78
2023/03/11 05:22:36;;;;;;;6.50;2.30;;;29.80;99.90;;;;;;5094418;28;20200;-77
2023/03/11 05:25:08;;;;;;;5.03;1.80;;;29.80;99.90;;;;;;5111839;28;20194;-78
2023/03/11 05:27:39;;;;;;;4.78;1.60;;;29.80;99.90;;;;;;5097761;28;20227;-78
2023/03/11 05:30:16;;;;;;;8.73;2.17;;;29.70;99.90;;;;;;5092348;28;20211;-78
2023/03/11 05:32:47;;;;;;;4.85;1.90;;;29.90;99.90;;;;;;5106121;28;20207;-78
2023/03/11 05:35:19;;;;;;;6.03;1.90;;;29.90;99.90;;;;;;5100057;28;20305;-78
2023/03/11 05:37:51;;;;;;;7.55;1.95;;;29.80;99.90;;;;;;5099760;28;20293;-81
2023/03/11 05:40:22;;;;;;;4.40;1.73;;;29.80;99.90;;;;;;5109656;28;20199;-79
2023/03/11 05:42:53;;;;;;;6.07;2.00;;;29.90;99.90;;;;;;5104099;28;20642;-78
2023/03/11 05:45:27;;;;;;;6.28;1.90;;;29.90;99.90;;;;;;5104955;28;20657;-79
2023/03/11 05:47:58;;;;;;;5.60;1.70;;;29.90;99.90;;;;;;5093789;28;20195;-80
2023/03/11 05:50:29;;;;;;;4.85;1.90;;;30.00;99.90;;;;;;5100512;28;20198;-79
2023/03/11 05:53:00;;;;;;;3.75;1.83;;;30.00;99.90;;;;;;5108508;28;20199;-79
2023/03/11 05:55:31;;;;;;;5.60;1.85;;;30.00;99.90;;;;;;5093060;28;20230;-79
2023/03/11 05:58:02;;;;;;;10.18;2.13;;;30.10;99.90;;;;;;5096775;28;20202;-78
2023/03/11 06:00:35;;;;;;;7.45;1.90;;;30.00;99.90;;;;;;5110429;27;20198;-78
2023/03/11 06:03:06;;;;;;;3.72;1.80;;;30.10;99.90;;;;;;5098541;28;20673;-79
2023/03/11 06:05:37;;;;;;;4.28;1.60;;;30.20;99.90;;;;;;5100291;28;20222;-79
2023/03/11 06:08:08;;;;;;;5.47;1.77;;;30.20;99.90;;;;;;5103197;28;20569;-80
2023/03/11 06:10:40;;;;;;;7.72;1.90;;;30.20;99.90;;;;;;5113066;28;20199;-79
2023/03/11 06:13:11;;;;;;;5.43;1.98;;;30.10;99.90;;;;;;5095296;28;20199;-79
2023/03/11 06:15:45;;;;;;;6.38;1.90;;;30.30;99.90;;;;;;5109324;28;20222;-79
2023/03/11 06:18:18;;;;;;;4.10;1.88;;;30.60;99.90;;;;;;5090224;28;20266;-77
2023/03/11 06:20:49;;;;;;;7.47;2.10;;;30.70;99.90;;;;;;5103352;28;20199;-78
2023/03/11 06:23:20;;;;;;;6.15;2.15;;;30.70;99.90;;;;;;5090539;28;20562;-77
2023/03/11 06:25:58;;;;;;;4.75;1.85;;;30.90;99.90;;;;;;5091820;28;20476;-77
2023/03/11 06:28:30;;;;;;;6.60;1.85;;;30.90;99.90;;;;;;5095812;28;20222;-78
2023/03/11 06:31:13;;;;;;;5.72;1.85;;;31.00;99.90;;;;;;5107719;28;20217;-79
2023/03/11 06:33:44;;;;;;;7.10;2.20;;;31.10;99.90;;;;;;5103535;28;20269;-78
2023/03/11 06:36:16;;;;;;;8.23;2.28;;;31.30;99.90;;;;;;5109228;28;20209;-78
2023/03/11 06:38:48;;;;;;;7.05;1.90;;;31.60;99.90;;;;;;5106534;28;20191;-79
2023/03/11 06:41:20;;;;;;;8.35;2.13;;;31.80;99.90;;;;;;5096668;28;20231;-78
2023/03/11 06:43:51;;;;;;;11.75;2.13;;;31.80;99.90;;;;;;5099814;28;20206;-78
2023/03/11 06:46:24;;;;;;;5.03;1.90;;;31.90;99.90;;;;;;5091003;28;20206;-79
2023/03/11 06:48:56;;;;;;;5.53;1.70;;;32.00;99.90;;;;;;5094708;28;20195;-80
2023/03/11 06:51:27;;;;;;;7.15;1.95;;;32.00;99.90;;;;;;5091116;28;20196;-79
2023/03/11 06:53:58;;;;;;;6.03;1.90;;;32.00;99.90;;;;;;5091129;28;20198;-79
2023/03/11 06:56:29;;;;;;;5.47;2.00;;;32.00;99.90;;;;;;5095524;28;20198;-80
2023/03/11 06:59:01;;;;;;;8.65;2.20;;;32.20;99.90;;;;;;5100556;28;20198;-78
2023/03/11 07:01:34;;;;;;;6.72;2.20;;;32.20;99.90;;;;;;5096609;28;20191;-78
2023/03/11 07:04:05;;;;;;;13.23;2.25;;;32.40;99.90;;;;;;5099870;28;20195;-79
2023/03/11 07:06:37;;;;;;;6.82;2.03;;;32.50;99.90;;;;;;5093754;28;20197;-79
2023/03/11 07:09:08;;;;;;;7.60;1.90;;;32.70;99.90;;;;;;5101997;28;20274;-77
2023/03/11 07:11:39;;;;;;;7.57;2.10;;;32.70;99.90;;;;;;5097682;28;20190;-79
2023/03/11 07:14:10;;;;;;;8.50;2.50;;;32.50;99.90;;;;;;5090828;28;20207;-78
2023/03/11 07:16:43;;;;;;;7.97;2.20;;;31.80;99.90;;;;;;5106164;28;20969;-77
2023/03/11 07:19:16;;;;;;;10.63;2.70;;;31.20;99.90;;;;;;5105075;28;20214;-78
2023/03/11 07:21:47;;;;;;;11.98;2.50;;;30.80;99.90;;;;;;5110779;28;20195;-78
2023/03/11 07:24:18;;;;;;;8.57;2.45;;;30.50;99.90;;;;;;5092733;28;20203;-78
2023/03/11 07:26:51;;;;;;;8.02;2.30;;;30.10;99.90;;;;;;5096837;28;20245;-78
2023/03/11 07:29:22;;;;;;;6.13;2.22;;;29.80;99.90;;;;;;5097314;28;20198;-78
2023/03/11 07:31:55;;;;;;;9.15;2.33;;;29.50;99.90;;;;;;5090548;28;20202;-79
2023/03/11 07:34:26;;;;;;;8.80;2.08;;;29.30;99.90;;;;;;5090083;28;20226;-79
2023/03/11 07:36:57;;;;;;;6.43;1.98;;;29.20;99.90;;;;;;5105531;28;20198;-78
2023/03/11 07:39:29;;;;;;;4.38;1.92;;;28.90;99.90;;;;;;5105370;28;20194;-78
2023/03/11 07:42:00;;;;;;;11.13;2.20;;;28.80;99.90;;;;;;5097864;28;20195;-78
2023/03/11 07:44:31;;;;;;;8.68;2.28;;;28.50;99.90;;;;;;5110321;28;20653;-78
2023/03/11 07:47:05;;;;;;;6.88;2.33;;;28.50;99.90;;;;;;5094663;28;20673;-77
2023/03/11 07:49:36;;;;;;;5.50;1.95;;;28.40;99.90;;;;;;5095771;28;20551;-79
2023/03/11 07:52:08;;;;;;;5.63;2.00;;;28.30;99.90;;;;;;5089919;28;20191;-81
2023/03/11 07:54:39;;;;;;;6.40;2.30;;;28.30;99.90;;;;;;5090865;28;20292;-78
2023/03/11 07:57:15;;;;;;;5.82;2.13;;;28.20;99.90;;;;;;5090964;28;20203;-77
2023/03/11 07:59:47;;;;;;;4.63;1.85;;;28.10;99.90;;;;;;5103138;28;20198;-78
2023/03/11 08:02:20;;;;;;;7.35;2.55;;;28.10;99.90;;;;;;5091066;28;20205;-78
2023/03/11 08:04:51;;;;;;;7.70;2.45;;;28.00;99.90;;;;;;5097633;28;20203;-78
2023/03/11 08:07:22;;;;;;;6.10;2.30;;;27.90;99.90;;;;;;5089688;28;20200;-78
2023/03/11 08:09:54;;;;;;;4.13;2.00;;;27.90;99.90;;;;;;5107196;28;20201;-77
2023/03/11 08:12:25;;;;;;;9.27;2.70;;;27.90;99.90;;;;;;5095962;28;20203;-76
2023/03/11 08:14:56;;;;;;;4.85;2.25;;;27.80;99.90;;;;;;5110937;28;20214;-77
2023/03/11 08:17:29;;;;;;;6.93;2.30;;;27.80;99.90;;;;;;5093235;28;20211;-76
2023/03/11 08:20:00;;;;;;;7.78;2.60;;;27.70;99.90;;;;;;5114103;28;20194;-78
2023/03/11 08:22:31;;;;;;;7.53;2.70;;;27.70;99.90;;;;;;5112894;28;20199;-77
2023/03/11 08:25:03;;;;;;;7.50;2.70;;;27.70;99.90;;;;;;5103608;28;20681;-78
2023/03/11 08:27:34;;;;;;;5.82;2.53;;;27.60;99.90;;;;;;5104199;28;20242;-78
2023/03/11 08:30:05;;;;;;;6.63;2.90;;;27.60;99.90;;;;;;5110713;28;20194;-76
2023/03/11 08:32:39;;;;;;;8.88;2.90;;;27.60;99.90;;;;;;5097616;28;20190;-77
2023/03/11 08:35:11;;;;;;;7.45;2.72;;;27.50;99.90;;;;;;5109226;28;20222;-78
2023/03/11 08:37:42;;;;;;;5.65;2.33;;;27.50;99.90;;;;;;5092076;28;20910;-78
2023/03/11 08:40:15;;;;;;;3.80;2.30;;;27.50;99.90;;;;;;5094100;28;20199;-77
2023/03/11 08:42:46;;;;;;;6.30;2.40;;;27.50;99.90;;;;;;5099921;28;20187;-76
2023/03/11 08:45:17;;;;;;;5.78;2.80;;;27.50;99.90;;;;;;5101559;28;20206;-77
2023/03/11 08:47:50;;;;;;;5.53;2.60;;;27.40;99.90;;;;;;5104024;28;20604;-77
2023/03/11 08:50:23;;;;;;;6.80;2.50;;;27.40;99.90;;;;;;5107904;28;20199;-77
2023/03/11 08:52:55;;;;;;;5.50;2.33;;;27.40;99.90;;;;;;5097033;28;20198;-77
2023/03/11 08:55:27;;;;;;;4.10;2.08;;;27.40;99.90;;;;;;5115523;28;20219;-76
2023/03/11 08:57:58;;;;;;;4.32;2.42;;;27.40;99.90;;;;;;5109646;28;20529;-77
2023/03/11 09:00:29;;;;;;;5.68;2.30;;;27.40;99.90;;;;;;5098583;28;20221;-78
2023/03/11 09:03:02;;;;;;;4.55;2.25;;;27.40;99.90;;;;;;5114742;28;20199;-77
2023/03/11 09:05:33;;;;;;;5.75;2.00;;;27.40;99.90;;;;;;5118918;28;20198;-76
2023/03/11 09:08:05;;;;;;;4.45;2.13;;;27.40;99.90;;;;;;5115837;28;20198;-77
2023/03/11 09:10:37;;;;;;;6.78;2.45;;;27.40;99.90;;;;;;5115085;28;20197;-77
2023/03/11 09:13:08;;;;;;;7.72;2.55;;;27.40;99.90;;;;;;5103588;28;20207;-77
2023/03/11 09:15:39;;;;;;;6.32;2.60;;;27.30;99.90;;;;;;5096604;28;20219;-76
2023/03/11 09:18:15;;;;;;;6.60;2.65;;;27.30;99.90;;;;;;5104467;28;20214;-77
2023/03/11 09:20:46;;;;;;;7.55;2.58;;;27.20;99.90;;;;;;5107409;28;20201;-76
2023/03/11 09:23:19;;;;;;;8.35;2.75;;;27.20;99.90;;;;;;5114839;28;20229;-76
2023/03/11 09:25:50;;;;;;;6.72;2.85;;;27.20;99.90;;;;;;5114642;28;20198;-77
2023/03/11 09:28:21;;;;;;;6.50;2.58;;;27.20;99.90;;;;;;5095579;28;20223;-77
2023/03/11 09:30:52;;;;;;;5.28;2.55;;;27.20;99.90;;;;;;5094808;28;20203;-78
2023/03/11 09:33:26;;;;;;;8.20;2.88;;;27.10;99.90;;;;;;5096093;28;20204;-75
2023/03/11 09:35:58;;;;;;;8.50;3.05;;;27.10;99.90;;;;;;5107960;28;20589;-77
2023/03/11 09:38:29;;;;;;;6.78;2.55;;;27.10;99.90;;;;;;5097616;28;20199;-77
2023/03/11 09:41:09;;;;;;;7.32;2.60;;;27.10;99.90;;;;;;5096324;28;20203;-77
2023/03/11 09:43:53;;;;;;;7.30;2.70;;;27.10;99.90;;;;;;5094794;28;20195;-77
2023/03/11 09:46:47;;;;;;;6.32;2.72;;;27.10;99.90;;;;;;5095922;28;20203;-76
2023/03/11 09:49:28;;;;;;;7.80;2.83;;;27.00;99.90;;;;;;5111803;28;20198;-78
2023/03/11 09:52:08;;;;;;;7.93;2.90;;;27.00;99.90;;;;;;5114881;28;20197;-76
2023/03/11 09:54:44;;;;;;;8.60;2.83;;;27.00;99.90;;;;;;5106363;28;20231;-78
2023/03/11 09:57:19;;;;;;;6.78;2.65;;;27.00;99.90;;;;;;5097573;28;20227;-76
2023/03/11 09:59:51;;;;;;;7.90;2.72;;;27.00;99.90;;;;;;5099926;28;20195;-79
2023/03/11 10:02:25;;;;;;;6.82;2.90;;;27.00;99.90;;;;;;5098752;28;20203;-78
2023/03/11 10:05:02;;;;;;;9.68;2.80;;;26.90;99.90;;;;;;5106070;28;20195;-78
2023/03/11 10:07:39;;;;;;;6.18;2.70;;;26.90;99.90;;;;;;5096610;28;20195;-77
2023/03/11 10:10:15;;;;;;;8.13;3.05;;;26.90;99.90;;;;;;5097560;28;20202;-78
2023/03/11 10:12:53;;;;;;;8.70;2.97;;;26.90;99.90;;;;;;5112867;28;20205;-79
2023/03/11 10:15:40;;;;;;;7.32;3.22;;;26.90;99.90;;;;;;5098850;28;20227;-78
2023/03/11 10:18:31;;;;;;;9.90;3.30;;;27.00;99.90;;;;;;5095295;28;20692;-78
2023/03/11 10:21:25;;;;;;;8.38;3.13;;;26.90;99.90;;;;;;5111522;28;20194;-78
2023/03/11 10:24:09;;;;;;;10.75;3.28;;;26.90;99.90;;;;;;5110982;28;20191;-78
2023/03/11 10:26:47;;;;;;;10.48;3.00;;;26.90;99.90;;;;;;5120475;28;20289;-78
2023/03/11 10:29:25;;;;;;;9.35;3.50;;;26.90;99.90;;;;;;5105974;28;20225;-76
2023/03/11 10:32:04;;;;;;;11.63;3.10;;;26.90;99.90;;;;;;5114169;28;20250;-77
2023/03/11 10:34:40;;;;;;;9.65;3.05;;;26.80;99.90;;;;;;5115781;28;20700;-77
2023/03/11 10:37:30;;;;;;;8.77;2.90;;;26.70;99.90;;;;;;5107174;28;20313;-77
2023/03/11 10:40:09;;;;;;;11.38;2.90;;;26.70;99.90;;;;;;5121691;28;20197;-77
2023/03/11 10:42:48;;;;;;;11.57;3.22;;;26.70;99.90;;;;;;5118219;28;20280;-77
2023/03/11 10:45:22;;;;;;;9.23;2.92;;;26.70;99.90;;;;;;5109896;28;20190;-77
2023/03/11 10:47:53;;;;;;;7.35;2.60;;;26.70;99.90;;;;;;5123049;28;20200;-76
2023/03/11 10:50:26;;;;;;;12.02;3.25;;;26.70;99.90;;;;;;5104233;28;20206;-77
2023/03/11 10:53:16;;;;;;;7.70;2.58;;;26.80;99.90;;;;;;5117827;28;20195;-80
2023/03/11 10:55:50;;;;;;;11.35;2.95;;;26.70;99.90;;;;;;5126105;28;20260;-76
2023/03/11 11:01:23;;;;;;;10.52;2.63;;;26.70;99.90;;;;;;5107912;28;20233;-77
2023/03/11 11:03:59;;;;;;;5.25;2.17;;;26.60;99.90;;;;;;5110838;28;20194;-78
2023/03/11 11:06:33;;;;;;;7.80;2.50;;;26.60;99.90;;;;;;5121236;28;20198;-77
2023/03/11 11:09:18;;;;;;;10.95;2.83;;;26.60;99.90;;;;;;5114533;28;20194;-77
2023/03/11 11:12:05;;;;;;;9.27;2.70;;;26.60;99.90;;;;;;5105435;28;20218;-78
2023/03/11 11:14:58;;;;;;;9.10;2.65;;;26.60;99.90;;;;;;5100232;28;20198;-77
2023/03/11 11:17:44;;;;;;;10.10;2.85;;;26.60;99.90;;;;;;5101455;28;20225;-78
2023/03/11 11:20:22;;;;;;;8.30;2.42;;;26.60;99.90;;;;;;5105248;28;20220;-78
2023/03/11 11:22:58;;;;;;;8.60;2.60;;;26.60;99.90;;;;;;5106552;28;20274;-77
2023/03/11 11:25:36;;;;;;;7.60;2.63;;;26.50;99.90;;;;;;5105512;28;20205;-79
2023/03/11 11:28:22;;;;;;;9.57;2.88;;;26.50;99.90;;;;;;5119814;28;20578;-77
2023/03/11 11:30:58;;;;;;;6.72;2.28;;;26.50;99.90;;;;;;5117815;28;20559;-79
2023/03/11 11:33:35;;;;;;;8.23;2.42;;;26.60;99.90;;;;;;5110680;28;20612;-78
2023/03/11 11:36:23;;;;;;;10.90;2.95;;;26.60;99.90;;;;;;5110037;28;20674;-78
2023/03/11 11:38:57;;;;;;;9.05;2.90;;;26.60;99.90;;;;;;5108741;28;20255;-77
2023/03/11 11:41:43;;;;;;;8.55;2.47;;;26.50;99.90;;;;;;5113043;28;20186;-77
2023/03/11 11:44:21;;;;;;;7.00;2.40;;;26.50;99.90;;;;;;5114072;28;20198;-78
2023/03/11 11:46:59;;;;;;;9.20;2.17;;;26.50;99.90;;;;;;5097853;28;20207;-79
2023/03/11 11:49:36;;;;;;;6.00;2.63;;;26.40;99.90;;;;;;5108988;28;20265;-77
2023/03/11 11:52:14;;;;;;;9.85;2.97;;;26.50;99.90;;;;;;5109956;28;20229;-78
2023/03/11 11:54:57;;;;;;;7.32;2.47;;;26.50;99.90;;;;;;5109637;28;20203;-77
2023/03/11 11:57:44;;;;;;;9.05;2.40;;;26.40;99.90;;;;;;5125378;28;20615;-78
2023/03/11 12:00:27;;;;;;;8.80;2.78;;;26.40;99.90;;;;;;5122842;28;20198;-80
2023/03/11 12:03:17;;;;;;;9.23;2.80;;;26.30;99.90;;;;;;5104632;28;20202;-78
2023/03/11 12:06:06;;;;;;;8.77;2.70;;;26.30;99.90;;;;;;5102926;28;20230;-78
2023/03/11 12:08:44;;;;;;;10.65;2.70;;;26.40;99.90;;;;;;5110636;28;20178;-77
2023/03/11 12:11:33;;;;;;;7.15;2.58;;;26.40;99.90;;;;;;5128026;28;20194;-81
2023/03/11 12:14:21;;;;;;;9.02;2.72;;;26.40;99.90;;;;;;5109128;28;20191;-78
2023/03/11 12:16:59;;;;;;;8.30;2.50;;;26.40;99.90;;;;;;5107261;28;20219;-77
2023/03/11 12:19:50;;;;;;;7.15;2.50;;;26.40;99.90;;;;;;5117915;28;20194;-77
2023/03/11 12:23:09;;;;;;;9.80;2.60;;;26.40;99.90;;;;;;5099298;28;20213;-76
2023/03/11 12:25:46;;;;;;;7.35;2.40;;;26.30;99.90;;;;;;5054966;28;20196;-76
2023/03/11 12:28:25;;;;;;;8.88;2.92;;;26.30;99.90;;;;;;5089062;28;20592;-77
2023/03/11 12:31:01;;;;;;;7.20;2.85;;;26.30;99.90;;;;;;5114331;28;20199;-76
2023/03/11 12:33:38;;;;;;;14.93;3.75;;;26.40;99.90;;;;;;5112933;28;20204;-77
2023/03/11 12:36:20;;;;;;;11.25;3.30;;;26.40;99.90;;;;;;5112318;28;20287;-78
2023/03/11 12:38:52;;;;;;;16.98;3.90;;;26.40;99.90;;;;;;5112393;28;20563;-76
2023/03/11 12:41:37;;;;;;;14.25;3.63;;;26.40;99.90;;;;;;5114632;28;20657;-76
2023/03/11 12:44:25;;;;;;;15.23;3.97;;;26.40;99.90;;;;;;5106327;28;20240;-77
2023/03/11 12:47:24;;;;;;;15.18;4.05;;;26.40;99.90;;;;;;5103637;28;20194;-77
2023/03/11 12:49:57;;;;;;;17.02;3.83;;;26.50;99.90;;;;;;5103994;28;20208;-77
2023/03/11 12:52:33;;;;;;;15.02;3.70;;;26.40;99.90;;;;;;5097881;28;20661;-77
2023/03/11 12:55:32;;;;;;;14.13;3.42;;;26.30;99.90;;;;;;5098060;28;20222;-77
2023/03/11 12:58:43;;;;;;;12.35;3.30;;;26.20;99.90;;;;;;5103846;28;20225;-76
2023/03/11 13:01:38;;;;;;;16.20;3.72;;;26.20;99.90;;;;;;5098150;28;20221;-76
2023/03/11 13:04:28;;;;;;;21.35;4.63;;;26.10;99.90;;;;;;5104716;28;20195;-76
2023/03/11 13:07:30;;;;;;;21.38;3.40;;;26.10;99.90;;;;;;5101789;28;20195;-77
2023/03/11 13:10:13;;;;;;;15.30;3.92;;;26.00;99.90;;;;;;5094031;28;20195;-77
2023/03/11 13:12:46;;;;;;;14.00;3.60;;;26.00;99.90;;;;;;5094743;28;20195;-77
2023/03/11 13:15:41;;;;;;;17.80;3.78;;;26.00;99.90;;;;;;5112193;28;20214;-77
2023/03/11 13:18:25;;;;;;;13.45;3.35;;;26.00;99.90;;;;;;5115716;28;20780;-78
2023/03/11 13:21:01;;;;;;;13.10;3.70;;;25.90;99.90;;;;;;5116780;28;20247;-78
2023/03/11 13:23:35;;;;;;;13.18;3.28;;;25.90;99.90;;;;;;5113920;28;20190;-78
2023/03/11 13:26:42;;;;;;;11.93;3.30;;;25.90;99.90;;;;;;5098384;28;20199;-78
2023/03/11 13:29:50;;;;;;;15.23;3.38;;;25.90;99.90;;;;;;5031179;28;20623;-76